Corunna, Indiana
Current Conditions -  °F | °C
As of 1:15 PM on Friday 31 Oct 2014 (Local Time) from KGWB Reporting Station
Overcast Overcast  
Wind Chill: 38°   Ceiling: 2800
Heat Index: 43°   Visibility: 10mi
Dew Point: 36°   Wind: 8mph
Humidity: 76%   Direction: 300°WNW
Pressure: 29.91"   Gusts: NA
Location:  41.44°N, 85.15°W
Report Text: KGWB 311715Z AUTO 30007KT 10SM SCT019 BKN028 OVC033 06/02 A2991 RMK AO2
Loading
Personal Weather Stations






























Interactive Weather Map
Tropical Storm Tracking
New forecast layout! Learn more

10-Day Weather Forecast

Advertisements
Track Severe Weather on mobile